Terminal Aerodrome Forecast
Issued by NWS

Home | Current Version | Previous Version | Text Only | Print | Product List | Glossary Off
Versions: 1 2 3 4 5 6 7 8 9 10 11 12 13 14

699
FTUS43 KBIS 030528
TAFMOT
TAF
KMOT 030528Z 0306/0406 22006KT P6SM FEW250
     FM031300 29010KT P6SM FEW250
     FM031500 33012KT P6SM FEW250
     FM040400 VRB04KT P6SM FEW250=

USA.gov is the U.S. government's official web portal to all federal, state and local government web resources and services.